createdAt,value
2018-08-24T00:02:45.343Z,24.70
2018-08-24T00:07:42.712Z,22.47
2018-08-24T00:12:40.099Z,31.50
2018-08-24T00:17:37.504Z,28.50
2018-08-24T00:22:35.884Z,26.40
2018-08-24T00:27:34.212Z,20.43
2018-08-24T00:32:31.612Z,27.80
2018-08-24T00:37:29.605Z,28.50
2018-08-24T00:42:27.239Z,21.83
2018-08-24T00:47:24.630Z,24.77
2018-08-24T00:52:22.071Z,29.63
2018-08-24T00:57:19.460Z,25.50
2018-08-24T01:02:16.842Z,25.50
2018-08-24T01:07:14.776Z,21.43
2018-08-24T01:12:15.415Z,19.50
2018-08-24T01:17:18.734Z,12.43
2018-08-24T01:22:16.372Z,12.83
2018-08-24T01:27:13.753Z,13.53
2018-08-24T01:32:13.587Z,8.03
2018-08-24T01:37:11.066Z,6.37
2018-08-24T01:42:09.960Z,3.90
2018-08-24T01:47:07.343Z,1.93
2018-08-24T01:52:04.791Z,3.73
2018-08-24T01:57:02.175Z,1.73
2018-08-24T02:01:59.580Z,7.53
2018-08-24T02:06:56.999Z,1.40
2018-08-24T02:11:54.406Z,4.33
2018-08-24T02:16:51.830Z,1.37
2018-08-24T02:21:54.859Z,1.20
2018-08-24T02:26:52.356Z,1.43
2018-08-24T02:31:50.523Z,1.43
2018-08-24T02:36:47.927Z,1.67
2018-08-24T02:41:45.702Z,1.30
2018-08-24T02:46:43.759Z,2.30
2018-08-24T02:51:41.195Z,1.90
2018-08-24T02:56:38.591Z,2.27
2018-08-24T03:01:35.971Z,3.10
2018-08-24T03:06:33.346Z,2.53
2018-08-24T03:11:30.719Z,2.63
2018-08-24T03:16:28.231Z,3.10
2018-08-24T03:21:25.631Z,3.03
2018-08-24T03:26:23.635Z,3.80
2018-08-24T03:31:21.023Z,8.33
2018-08-24T03:36:18.411Z,4.47
2018-08-24T03:41:15.804Z,5.93
2018-08-24T03:46:13.199Z,5.70
2018-08-24T03:51:10.667Z,4.93
2018-08-24T03:56:08.080Z,6.07
2018-08-24T04:01:05.500Z,5.63
2018-08-24T04:06:02.976Z,8.03
2018-08-24T04:11:00.411Z,6.23
2018-08-24T04:15:58.475Z,6.40
2018-08-24T04:20:56.326Z,7.37
2018-08-24T04:25:53.715Z,7.10
2018-08-24T04:30:51.127Z,11.40
2018-08-24T04:35:48.523Z,7.13
2018-08-24T04:40:45.951Z,9.00
2018-08-24T04:45:43.331Z,10.50
2018-08-24T04:50:40.723Z,8.63
2018-08-24T04:55:38.256Z,10.10
2018-08-24T05:00:35.658Z,10.97
2018-08-24T05:05:33.027Z,10.97
2018-08-24T05:10:30.449Z,8.80
2018-08-24T05:15:27.948Z,8.40
2018-08-24T05:20:25.346Z,12.20
2018-08-24T05:25:22.759Z,9.23
2018-08-24T05:30:20.152Z,10.10
2018-08-24T05:35:17.616Z,11.30
2018-08-24T05:40:15.016Z,9.73
2018-08-24T05:45:12.413Z,8.67
2018-08-24T05:50:10.243Z,14.93
2018-08-24T05:55:07.703Z,13.03
2018-08-24T06:00:05.175Z,11.47
2018-08-24T06:05:02.635Z,9.47
2018-08-24T06:10:00.037Z,14.00
2018-08-24T06:14:57.436Z,9.77
2018-08-24T06:19:55.897Z,11.80
2018-08-24T06:24:54.535Z,19.37
2018-08-24T06:29:52.087Z,10.80
2018-08-24T06:34:49.539Z,12.70
2018-08-24T06:39:46.959Z,15.90
2018-08-24T06:44:44.397Z,23.00
2018-08-24T06:49:42.828Z,25.93
2018-08-24T06:54:40.249Z,26.30
2018-08-24T06:59:37.924Z,33.90
2018-08-24T07:04:35.315Z,41.23
2018-08-24T07:09:32.915Z,47.30
2018-08-24T07:14:31.034Z,45.97
2018-08-24T07:19:32.345Z,44.07
2018-08-24T07:24:29.831Z,52.20
2018-08-24T07:29:27.275Z,52.57
2018-08-24T07:34:24.693Z,46.53
2018-08-24T07:39:22.083Z,51.00
2018-08-24T07:44:19.732Z,42.73
2018-08-24T07:49:23.110Z,58.00
2018-08-24T07:54:20.591Z,56.60
2018-08-24T07:59:18.018Z,55.00
2018-08-24T08:04:15.453Z,48.07
2018-08-24T08:09:12.858Z,48.50
2018-08-24T08:14:10.999Z,56.87
2018-08-24T08:19:10.605Z,50.00
2018-08-24T08:24:08.902Z,30.77
2018-08-24T08:29:06.353Z,45.87
2018-08-24T08:34:04.825Z,40.50
2018-08-24T08:39:02.341Z,39.20
2018-08-24T08:43:59.774Z,44.57
2018-08-24T08:48:57.949Z,38.87
2018-08-24T08:53:55.372Z,31.33
2018-08-24T08:58:52.781Z,40.17
2018-08-24T09:03:50.199Z,38.90
2018-08-24T09:08:48.762Z,39.50
2018-08-24T09:13:46.859Z,32.23
2018-08-24T09:18:51.031Z,29.17
2018-08-24T09:23:54.811Z,23.37
2018-08-24T09:28:53.503Z,11.17
2018-08-24T09:33:50.966Z,12.40
2018-08-24T09:38:50.530Z,17.27
2018-08-24T09:43:53.641Z,13.53
2018-08-24T09:48:56.778Z,15.23
2018-08-24T09:53:59.744Z,12.07
2018-08-24T09:58:57.428Z,10.90
2018-08-24T10:04:00.440Z,5.60
2018-08-24T10:08:57.972Z,8.37
2018-08-24T10:13:55.424Z,9.00
2018-08-24T10:18:52.872Z,9.27
2018-08-24T10:23:50.326Z,4.97
2018-08-24T10:28:47.784Z,3.30
2018-08-24T10:33:45.234Z,11.83
2018-08-24T10:38:42.651Z,6.07
2018-08-24T10:43:40.183Z,3.93
2018-08-24T10:48:37.613Z,3.87
2018-08-24T10:53:35.042Z,17.10
2018-08-24T10:58:32.515Z,6.27
2018-08-24T11:03:29.919Z,3.93
2018-08-24T11:08:27.361Z,7.30
2018-08-24T11:13:25.075Z,1.70
2018-08-24T11:18:22.542Z,8.23
2018-08-24T11:23:19.946Z,6.17
2018-08-24T11:28:17.331Z,8.13
2018-08-24T11:33:14.828Z,9.43
2018-08-24T11:38:12.895Z,3.37
2018-08-24T11:43:10.292Z,2.30
2018-08-24T11:48:07.700Z,4.93
2018-08-24T11:53:06.822Z,0.70
2018-08-24T11:58:04.372Z,14.43
2018-08-24T12:03:02.704Z,4.20
2018-08-24T12:08:00.540Z,1.50
2018-08-24T12:12:58.250Z,2.60
2018-08-24T12:17:56.298Z,4.53
2018-08-24T12:22:53.775Z,1.87
2018-08-24T12:27:52.128Z,2.20
2018-08-24T12:32:49.535Z,4.10
2018-08-24T12:37:47.649Z,5.87
2018-08-24T12:42:45.226Z,4.83
2018-08-24T12:47:42.621Z,6.40
2018-08-24T12:52:41.007Z,4.40
2018-08-24T12:57:38.539Z,0.60
2018-08-24T13:02:35.910Z,5.30
2018-08-24T13:07:33.336Z,4.53
2018-08-24T13:12:30.726Z,2.70
2018-08-24T13:17:28.142Z,2.63
2018-08-24T13:22:25.579Z,4.63
2018-08-24T13:27:23.671Z,3.30
2018-08-24T13:32:21.071Z,8.07
2018-08-24T13:37:18.477Z,4.77
2018-08-24T13:42:15.879Z,5.90
2018-08-24T13:47:13.255Z,9.60
2018-08-24T13:52:10.646Z,1.90
2018-08-24T13:57:08.031Z,6.37
2018-08-24T14:02:05.466Z,3.90
2018-08-24T14:07:02.891Z,6.13
2018-08-24T14:12:00.295Z,1.60
2018-08-24T14:16:57.718Z,9.10
2018-08-24T14:21:55.119Z,7.57
2018-08-24T14:26:52.511Z,5.27
2018-08-24T14:31:49.986Z,10.63
2018-08-24T14:36:47.396Z,1.97
2018-08-24T14:41:44.799Z,11.30
2018-08-24T14:46:42.876Z,1.33
2018-08-24T14:51:40.316Z,1.83
2018-08-24T14:56:38.619Z,1.83
2018-08-24T15:01:36.009Z,1.13
2018-08-24T15:06:33.443Z,8.60
2018-08-24T15:11:30.843Z,1.83
2018-08-24T15:16:28.268Z,3.47
2018-08-24T15:21:25.661Z,1.33
2018-08-24T15:26:23.052Z,8.13
2018-08-24T15:31:21.404Z,8.93
2018-08-24T15:36:18.802Z,4.90
2018-08-24T15:41:16.222Z,2.63
2018-08-24T15:46:13.683Z,0.63
2018-08-24T15:51:11.025Z,0.70
2018-08-24T15:56:08.416Z,4.57
2018-08-24T16:01:05.829Z,2.70
2018-08-24T16:06:03.274Z,3.47
2018-08-24T16:11:00.716Z,2.40
2018-08-24T16:15:58.112Z,5.23
2018-08-24T16:20:55.510Z,9.20
2018-08-24T16:25:53.101Z,4.47
2018-08-24T16:30:50.496Z,2.00
2018-08-24T16:35:48.755Z,5.40
2018-08-24T16:40:46.199Z,3.33
2018-08-24T16:45:44.680Z,20.97
2018-08-24T16:50:42.111Z,2.60
2018-08-24T16:55:39.560Z,2.70
2018-08-24T17:00:36.965Z,1.60
2018-08-24T17:05:34.448Z,6.83
2018-08-24T17:10:31.858Z,2.10
2018-08-24T17:15:29.308Z,10.30
2018-08-24T17:20:26.697Z,2.80
2018-08-24T17:25:25.076Z,2.87
2018-08-24T17:30:22.490Z,1.27
2018-08-24T17:35:20.432Z,2.80
2018-08-24T17:40:17.809Z,6.27
2018-08-24T17:45:15.855Z,2.30
2018-08-24T17:50:14.302Z,2.17
2018-08-24T17:55:11.690Z,4.00
2018-08-24T18:00:09.171Z,2.77
2018-08-24T18:05:06.671Z,9.27
2018-08-24T18:10:04.709Z,1.63
2018-08-24T18:15:02.368Z,2.17
2018-08-24T18:20:00.617Z,2.73
2018-08-24T18:24:58.287Z,2.03
2018-08-24T18:29:56.366Z,2.93
2018-08-24T18:34:53.773Z,7.93
2018-08-24T18:39:51.188Z,4.57
2018-08-24T18:44:48.675Z,6.10
2018-08-24T18:49:52.581Z,3.77
2018-08-24T18:54:49.980Z,9.10
2018-08-24T18:59:47.351Z,1.57
2018-08-24T19:04:44.760Z,3.83
2018-08-24T19:09:42.503Z,1.47
2018-08-24T19:14:39.891Z,1.53
2018-08-24T19:19:49.428Z,1.73
2018-08-24T19:24:46.825Z,5.83
2018-08-24T19:29:49.911Z,6.90
2018-08-24T19:34:47.303Z,2.50
2018-08-24T19:39:50.032Z,3.13
2018-08-24T19:44:47.427Z,3.40
2018-08-24T19:49:51.695Z,1.70
2018-08-24T19:54:49.083Z,3.33
2018-08-24T19:59:47.407Z,3.10
2018-08-24T20:04:44.823Z,2.10
2018-08-24T20:09:47.792Z,5.70
2018-08-24T20:14:51.468Z,7.40
2018-08-24T20:19:51.793Z,3.50
2018-08-24T20:24:49.190Z,8.30
2018-08-24T20:29:46.567Z,11.83
2018-08-24T20:34:43.948Z,3.93
2018-08-24T20:39:42.287Z,4.87
2018-08-24T20:44:39.655Z,2.00
2018-08-24T20:49:41.272Z,7.03
2018-08-24T20:54:38.724Z,4.43
2018-08-24T20:59:36.095Z,6.80
2018-08-24T21:04:33.612Z,3.03
2018-08-24T21:09:31.003Z,4.40
2018-08-24T21:14:28.442Z,2.93
2018-08-24T21:19:29.413Z,4.07
2018-08-24T21:24:26.904Z,4.47
2018-08-24T21:29:24.287Z,2.07
2018-08-24T21:34:21.666Z,2.50
2018-08-24T21:39:19.050Z,7.40
2018-08-24T21:44:16.419Z,2.10
2018-08-24T21:49:20.312Z,2.40
2018-08-24T21:54:17.766Z,4.23
2018-08-24T21:59:15.143Z,2.40
2018-08-24T22:04:13.794Z,1.30
2018-08-24T22:09:11.231Z,4.97
2018-08-24T22:14:08.611Z,3.90
2018-08-24T22:19:09.645Z,0.77
2018-08-24T22:24:07.064Z,5.87
2018-08-24T22:29:04.791Z,1.83
2018-08-24T22:34:02.366Z,4.40
2018-08-24T22:38:59.730Z,2.47
2018-08-24T22:43:57.123Z,3.80
2018-08-24T22:48:54.499Z,3.80
2018-08-24T22:53:51.874Z,10.00
2018-08-24T22:58:50.047Z,4.67
2018-08-24T23:03:47.423Z,2.70
2018-08-24T23:08:44.811Z,2.93
2018-08-24T23:13:42.175Z,2.93
2018-08-24T23:18:39.539Z,4.47
2018-08-24T23:23:36.940Z,5.20
2018-08-24T23:28:34.307Z,3.43
2018-08-24T23:33:31.676Z,7.23
2018-08-24T23:38:29.091Z,7.47
2018-08-24T23:43:26.464Z,4.40
2018-08-24T23:48:23.920Z,4.80
2018-08-24T23:53:21.301Z,11.00
2018-08-24T23:58:18.687Z,12.60
